createdAt,value
2018-09-02T00:01:47.365Z,99032.16
2018-09-02T00:04:17.468Z,99031.95
2018-09-02T00:06:46.771Z,99033.41
2018-09-02T00:09:15.096Z,99032.37
2018-09-02T00:11:43.437Z,99025.52
2018-09-02T00:14:11.818Z,99026.27
2018-09-02T00:16:40.087Z,99020.59
2018-09-02T00:19:08.612Z,99018.93
2018-09-02T00:21:36.722Z,99016.60
2018-09-02T00:24:05.150Z,99016.13
2018-09-02T00:26:34.094Z,99016.45
2018-09-02T00:29:02.639Z,99019.56
2018-09-02T00:31:30.875Z,99014.95
2018-09-02T00:33:59.179Z,99014.16
2018-09-02T00:36:27.430Z,99013.25
2018-09-02T00:38:55.924Z,99012.30
2018-09-02T00:41:24.800Z,99012.30
2018-09-02T00:43:53.648Z,99008.80
2018-09-02T00:46:21.919Z,99013.33
2018-09-02T00:48:50.534Z,99010.84
2018-09-02T00:51:18.844Z,99008.41
2018-09-02T00:53:47.547Z,99013.17
2018-09-02T00:56:16.135Z,99004.41
2018-09-02T00:58:44.464Z,99013.08
2018-09-02T01:01:13.605Z,99006.77
2018-09-02T01:03:42.105Z,99006.48
2018-09-02T01:06:10.451Z,99007.38
2018-09-02T01:08:39.286Z,99012.00
2018-09-02T01:11:07.522Z,99011.56
2018-09-02T01:13:36.016Z,99007.89
2018-09-02T01:16:04.200Z,99012.34
2018-09-02T01:18:32.876Z,99004.45
2018-09-02T01:21:01.253Z,99001.30
2018-09-02T01:23:30.078Z,99003.57
2018-09-02T01:25:58.542Z,99008.69
2018-09-02T01:28:26.862Z,98999.06
2018-09-02T01:30:55.074Z,98997.76
2018-09-02T01:33:23.273Z,98997.66
2018-09-02T01:35:52.185Z,98993.84
2018-09-02T01:38:21.267Z,98993.77
2018-09-02T01:40:49.719Z,98995.16
2018-09-02T01:43:18.313Z,98995.48
2018-09-02T01:45:47.440Z,98992.20
2018-09-02T01:48:15.995Z,98997.94
2018-09-02T01:50:44.979Z,98988.31
2018-09-02T01:53:13.575Z,98991.98
2018-09-02T01:55:42.150Z,98984.50
2018-09-02T01:58:10.451Z,98981.30
2018-09-02T02:00:39.066Z,98985.47
2018-09-02T02:03:07.470Z,98975.46
2018-09-02T02:05:37.961Z,98971.73
2018-09-02T02:08:07.232Z,98973.16
2018-09-02T02:10:35.539Z,98969.25
2018-09-02T02:13:03.899Z,98972.41
2018-09-02T02:15:33.072Z,98962.16
2018-09-02T02:18:02.040Z,98968.39
2018-09-02T02:20:30.821Z,98965.44
2018-09-02T02:23:00.863Z,98965.36
2018-09-02T02:25:29.236Z,98963.41
2018-09-02T02:27:57.700Z,98965.12
2018-09-02T02:30:26.247Z,98957.82
2018-09-02T02:32:55.035Z,98959.09
2018-09-02T02:35:24.634Z,98956.41
2018-09-02T02:37:52.891Z,98953.25
2018-09-02T02:40:21.496Z,98954.36
2018-09-02T02:42:49.777Z,98948.81
2018-09-02T02:45:18.428Z,98948.40
2018-09-02T02:47:46.832Z,98951.05
2018-09-02T02:50:15.211Z,98944.99
2018-09-02T02:53:04.969Z,98942.93
2018-09-02T02:55:35.418Z,98941.63
2018-09-02T02:58:03.900Z,98942.17
2018-09-02T03:00:33.370Z,98938.12
2018-09-02T03:03:01.736Z,98942.17
2018-09-02T03:05:30.417Z,98935.61
2018-09-02T03:07:59.029Z,98931.03
2018-09-02T03:10:27.906Z,98934.37
2018-09-02T03:12:56.194Z,98931.84
2018-09-02T03:15:24.468Z,98928.41
2018-09-02T03:17:52.723Z,98924.69
2018-09-02T03:20:21.948Z,98936.53
2018-09-02T03:22:50.226Z,98924.69
2018-09-02T03:25:18.500Z,98928.76
2018-09-02T03:27:49.134Z,98931.63
2018-09-02T03:30:20.103Z,98929.20
2018-09-02T03:32:53.464Z,98930.16
2018-09-02T03:35:23.974Z,98925.97
2018-09-02T03:37:52.920Z,98926.95
2018-09-02T03:40:21.470Z,98923.69
2018-09-02T03:42:50.325Z,98920.36
2018-09-02T03:45:18.576Z,98922.84
2018-09-02T03:47:47.422Z,98921.82
2018-09-02T03:50:16.020Z,98924.98
2018-09-02T03:52:45.001Z,98925.35
2018-09-02T03:55:13.376Z,98918.44
2018-09-02T03:57:41.616Z,98919.52
2018-09-02T04:00:09.896Z,98924.21
2018-09-02T04:02:38.562Z,98919.13
2018-09-02T04:05:06.819Z,98919.27
2018-09-02T04:07:35.016Z,98919.58
2018-09-02T04:10:03.861Z,98920.73
2018-09-02T04:12:32.530Z,98916.41
2018-09-02T04:15:01.010Z,98921.44
2018-09-02T04:17:29.489Z,98915.02
2018-09-02T04:19:57.810Z,98911.12
2018-09-02T04:22:26.254Z,98914.07
2018-09-02T04:24:54.539Z,98915.54
2018-09-02T04:27:22.916Z,98910.91
2018-09-02T04:29:51.194Z,98912.16
2018-09-02T04:32:20.083Z,98913.72
2018-09-02T04:34:48.629Z,98909.82
2018-09-02T04:37:17.090Z,98905.67
2018-09-02T04:39:45.629Z,98906.39
2018-09-02T04:42:14.117Z,98904.89
2018-09-02T04:44:42.342Z,98905.14
2018-09-02T04:47:11.065Z,98905.93
2018-09-02T04:49:39.548Z,98902.25
2018-09-02T04:52:08.145Z,98903.33
2018-09-02T04:54:36.400Z,98897.78
2018-09-02T04:57:04.976Z,98895.70
2018-09-02T04:59:33.285Z,98903.86
2018-09-02T05:02:02.049Z,98903.38
2018-09-02T05:04:30.382Z,98909.14
2018-09-02T05:06:58.852Z,98910.66
2018-09-02T05:09:27.369Z,98910.23
2018-09-02T05:11:55.593Z,98909.09
2018-09-02T05:14:24.095Z,98914.17
2018-09-02T05:16:52.643Z,98908.77
2018-09-02T05:19:21.242Z,98912.09
2018-09-02T05:21:50.161Z,98910.28
2018-09-02T05:24:18.387Z,98909.23
2018-09-02T05:26:46.973Z,98913.13
2018-09-02T05:29:15.377Z,98907.44
2018-09-02T05:31:43.686Z,98912.81
2018-09-02T05:34:11.935Z,98910.58
2018-09-02T05:36:40.515Z,98908.81
2018-09-02T05:39:09.942Z,98913.84
2018-09-02T05:41:38.679Z,98906.33
2018-09-02T05:44:07.225Z,98902.64
2018-09-02T05:46:35.744Z,98901.67
2018-09-02T05:49:04.230Z,98906.06
2018-09-02T05:51:32.709Z,98904.77
2018-09-02T05:54:01.143Z,98906.43
2018-09-02T05:56:29.327Z,98903.36
2018-09-02T05:58:57.563Z,98911.58
2018-09-02T06:01:25.756Z,98911.94
2018-09-02T06:03:54.000Z,98914.64
2018-09-02T06:06:22.551Z,98913.92
2018-09-02T06:08:50.801Z,98908.20
2018-09-02T06:11:19.069Z,98913.40
2018-09-02T06:13:47.919Z,98923.11
2018-09-02T06:16:16.235Z,98919.47
2018-09-02T06:18:44.547Z,98919.75
2018-09-02T06:21:13.259Z,98916.15
2018-09-02T06:23:41.790Z,98923.41
2018-09-02T06:26:10.329Z,98921.70
2018-09-02T06:28:39.377Z,98920.59
2018-09-02T06:31:07.963Z,98917.74
2018-09-02T06:33:36.710Z,98921.81
2018-09-02T06:38:48.865Z,98924.67
2018-09-02T06:41:17.191Z,98926.75
2018-09-02T06:43:47.707Z,98926.80
2018-09-02T06:46:16.633Z,98919.53
2018-09-02T06:48:45.115Z,98920.31
2018-09-02T06:51:14.187Z,98926.23
2018-09-02T06:53:43.040Z,98922.81
2018-09-02T06:56:11.726Z,98923.73
2018-09-02T06:58:40.084Z,98926.02
2018-09-02T07:01:09.290Z,98924.43
2018-09-02T07:03:38.018Z,98926.22
2018-09-02T07:06:06.632Z,98926.02
2018-09-02T07:08:35.154Z,98928.41
2018-09-02T07:11:04.145Z,98925.55
2018-09-02T07:13:32.424Z,98921.97
2018-09-02T07:16:01.507Z,98927.68
2018-09-02T07:18:30.244Z,98924.21
2018-09-02T07:20:58.838Z,98922.43
2018-09-02T07:23:27.366Z,98927.48
2018-09-02T07:25:55.963Z,98924.77
2018-09-02T07:28:24.528Z,98922.69
2018-09-02T07:30:55.232Z,98926.70
2018-09-02T07:33:24.011Z,98920.83
2018-09-02T07:35:52.688Z,98922.79
2018-09-02T07:38:21.501Z,98925.74
2018-09-02T07:40:50.135Z,98923.00
2018-09-02T07:43:18.807Z,98920.63
2018-09-02T07:45:47.138Z,98924.81
2018-09-02T07:48:15.568Z,98921.75
2018-09-02T07:50:43.943Z,98919.23
2018-09-02T07:53:13.321Z,98920.81
2018-09-02T07:55:41.804Z,98922.41
2018-09-02T07:58:10.494Z,98921.69
2018-09-02T08:00:38.759Z,98922.36
2018-09-02T08:03:07.395Z,98925.00
2018-09-02T08:05:35.804Z,98927.80
2018-09-02T08:08:04.731Z,98933.64
2018-09-02T08:10:33.073Z,98931.37
2018-09-02T08:13:07.210Z,98930.23
2018-09-02T08:15:35.837Z,98929.20
2018-09-02T08:18:04.560Z,98935.41
2018-09-02T08:20:33.192Z,98930.97
2018-09-02T08:23:02.871Z,98929.06
2018-09-02T08:25:31.628Z,98933.13
2018-09-02T08:28:00.919Z,98940.13
2018-09-02T08:30:29.668Z,98928.38
2018-09-02T08:32:58.551Z,98927.70
2018-09-02T08:35:27.212Z,98931.95
2018-09-02T08:37:55.686Z,98932.22
2018-09-02T08:40:24.461Z,98922.09
2018-09-02T08:42:53.576Z,98927.59
2018-09-02T08:45:22.061Z,98930.91
2018-09-02T08:47:51.380Z,98931.89
2018-09-02T08:50:20.260Z,98932.63
2018-09-02T08:52:49.103Z,98930.06
2018-09-02T08:55:17.552Z,98926.11
2018-09-02T08:57:48.082Z,98927.90
2018-09-02T09:00:19.600Z,98930.23
2018-09-02T09:02:50.502Z,98929.02
2018-09-02T09:05:20.405Z,98927.43
2018-09-02T09:07:54.708Z,98928.38
2018-09-02T09:10:31.838Z,98928.39
2018-09-02T09:13:04.686Z,98924.02
2018-09-02T09:15:40.250Z,98926.61
2018-09-02T09:18:16.188Z,98927.34
2018-09-02T09:20:52.717Z,98930.42
2018-09-02T09:23:25.878Z,98931.12
2018-09-02T09:26:04.858Z,98925.34
2018-09-02T09:28:40.054Z,98921.52
2018-09-02T09:31:15.495Z,98921.52
2018-09-02T09:33:47.605Z,98915.21
2018-09-02T09:36:24.236Z,98913.94
2018-09-02T09:38:56.882Z,98913.17
2018-09-02T09:41:30.189Z,98909.55
2018-09-02T09:44:05.629Z,98904.88
2018-09-02T09:46:40.837Z,98900.40
2018-09-02T09:49:10.342Z,98908.63
2018-09-02T09:51:38.674Z,98906.88
2018-09-02T09:54:07.789Z,98904.17
2018-09-02T09:56:36.267Z,98907.61
2018-09-02T09:59:04.649Z,98912.36
2018-09-02T10:01:33.204Z,98906.98
2018-09-02T10:04:02.464Z,98907.45
2018-09-02T10:06:30.875Z,98902.37
2018-09-02T10:08:59.521Z,98897.80
2018-09-02T10:11:28.781Z,98902.13
2018-09-02T10:13:58.713Z,98894.64
2018-09-02T10:16:27.110Z,98898.03
2018-09-02T10:18:55.582Z,98899.73
2018-09-02T10:21:25.482Z,98897.70
2018-09-02T10:23:55.011Z,98899.18
2018-09-02T10:26:23.356Z,98895.23
2018-09-02T10:28:52.230Z,98897.28
2018-09-02T10:31:22.281Z,98896.61
2018-09-02T10:33:51.243Z,98889.27
2018-09-02T10:36:20.099Z,98885.52
2018-09-02T10:38:48.781Z,98882.16
2018-09-02T10:41:19.319Z,98888.25
2018-09-02T10:43:48.415Z,98885.55
2018-09-02T10:46:18.107Z,98889.97
2018-09-02T10:48:47.177Z,98883.57
2018-09-02T10:51:16.085Z,98875.90
2018-09-02T10:53:45.187Z,98868.77
2018-09-02T10:56:14.070Z,98876.67
2018-09-02T10:58:42.576Z,98861.63
2018-09-02T11:01:10.851Z,98861.27
2018-09-02T11:03:39.093Z,98858.78
2018-09-02T11:06:07.525Z,98856.56
2018-09-02T11:08:38.039Z,98855.94
2018-09-02T11:11:06.730Z,98844.16
2018-09-02T11:13:35.993Z,98858.41
2018-09-02T11:16:04.655Z,98847.67
2018-09-02T11:18:33.984Z,98853.11
2018-09-02T11:21:02.406Z,98846.95
2018-09-02T11:23:30.961Z,98848.88
2018-09-02T11:25:59.262Z,98849.11
2018-09-02T11:28:28.198Z,98852.48
2018-09-02T11:30:56.466Z,98845.61
2018-09-02T11:33:25.047Z,98850.80
2018-09-02T11:35:53.673Z,98852.84
2018-09-02T11:38:22.436Z,98849.50
2018-09-02T11:40:51.131Z,98844.67
2018-09-02T11:43:19.737Z,98840.02
2018-09-02T11:45:48.109Z,98836.34
2018-09-02T11:48:16.480Z,98837.90
2018-09-02T11:50:45.390Z,98838.51
2018-09-02T11:53:13.882Z,98841.06
2018-09-02T11:55:42.407Z,98834.70
2018-09-02T11:58:11.200Z,98841.41
2018-09-02T12:00:39.889Z,98845.15
2018-09-02T12:03:08.753Z,98840.70
2018-09-02T12:05:37.601Z,98832.70
2018-09-02T12:08:06.265Z,98837.81
2018-09-02T12:10:41.410Z,98831.70
2018-09-02T12:13:10.264Z,98837.06
2018-09-02T12:15:44.916Z,98838.28
2018-09-02T12:18:16.991Z,98834.31
2018-09-02T12:20:49.382Z,98837.07
2018-09-02T12:23:20.578Z,98838.77
2018-09-02T12:25:52.487Z,98831.67
2018-09-02T12:28:23.163Z,98836.25
2018-09-02T12:30:54.550Z,98846.84
2018-09-02T12:33:26.058Z,98839.00
2018-09-02T12:36:00.160Z,98842.55
2018-09-02T12:38:31.159Z,98841.52
2018-09-02T12:41:01.472Z,98833.65
2018-09-02T12:43:37.135Z,98836.25
2018-09-02T12:46:09.326Z,98832.14
2018-09-02T12:48:39.725Z,98835.97
2018-09-02T12:51:13.023Z,98827.63
2018-09-02T12:53:47.365Z,98834.03
2018-09-02T12:56:19.102Z,98828.32
2018-09-02T12:58:50.451Z,98826.31
2018-09-02T13:01:22.915Z,98828.09
2018-09-02T13:03:55.277Z,98829.19
2018-09-02T13:06:26.810Z,98825.57
2018-09-02T13:08:56.768Z,98829.19
2018-09-02T13:11:26.473Z,98821.67
2018-09-02T13:13:58.603Z,98825.45
2018-09-02T13:16:35.308Z,98824.06
2018-09-02T13:19:11.572Z,98823.16
2018-09-02T13:21:44.603Z,98816.74
2018-09-02T13:24:16.324Z,98813.20
2018-09-02T13:26:47.660Z,98814.49
2018-09-02T13:29:19.827Z,98816.55
2018-09-02T13:31:51.987Z,98817.09
2018-09-02T13:34:22.304Z,98814.02
2018-09-02T13:36:55.721Z,98814.48
2018-09-02T13:39:28.393Z,98808.61
2018-09-02T13:42:01.688Z,98814.14
2018-09-02T13:44:30.881Z,98807.31
2018-09-02T13:47:00.700Z,98807.77
2018-09-02T13:49:30.304Z,98809.09
2018-09-02T13:51:58.965Z,98814.36
2018-09-02T13:54:27.816Z,98813.00
2018-09-02T13:56:56.832Z,98813.45
2018-09-02T13:59:25.784Z,98808.36
2018-09-02T14:01:55.355Z,98808.45
2018-09-02T14:04:26.322Z,98799.81
2018-09-02T14:06:55.630Z,98798.59
2018-09-02T14:09:24.031Z,98795.80
2018-09-02T14:11:53.631Z,98799.35
2018-09-02T14:14:22.832Z,98792.52
2018-09-02T14:16:52.531Z,98790.21
2018-09-02T14:19:20.887Z,98788.02
2018-09-02T14:21:50.368Z,98788.70
2018-09-02T14:24:26.482Z,98789.41
2018-09-02T14:26:56.796Z,98790.86
2018-09-02T14:29:26.463Z,98789.39
2018-09-02T14:31:54.922Z,98783.97
2018-09-02T14:34:23.464Z,98783.74
2018-09-02T14:36:52.797Z,98784.22
2018-09-02T14:39:21.414Z,98788.56
2018-09-02T14:41:58.119Z,98791.69
2018-09-02T14:44:29.241Z,98789.23
2018-09-02T14:46:59.429Z,98787.59
2018-09-02T14:49:33.839Z,98789.03
2018-09-02T14:52:10.336Z,98783.20
2018-09-02T14:54:40.189Z,98778.83
2018-09-02T14:57:14.401Z,98777.41
2018-09-02T14:59:51.760Z,98775.48
2018-09-02T15:02:26.105Z,98780.34
2018-09-02T15:04:55.725Z,98782.04
2018-09-02T15:07:28.188Z,98773.97
2018-09-02T15:10:00.918Z,98772.47
2018-09-02T15:12:33.928Z,98770.61
2018-09-02T15:15:03.629Z,98775.89
2018-09-02T15:17:36.481Z,98773.22
2018-09-02T15:20:10.190Z,98770.57
2018-09-02T15:22:41.237Z,98765.14
2018-09-02T15:25:12.849Z,98762.38
2018-09-02T15:27:44.851Z,98765.09
2018-09-02T15:30:15.840Z,98775.62
2018-09-02T15:32:46.667Z,98771.56
2018-09-02T15:35:21.486Z,98776.73
2018-09-02T15:37:50.939Z,98776.36
2018-09-02T15:40:20.476Z,98780.62
2018-09-02T15:42:50.951Z,98776.80
2018-09-02T15:45:21.150Z,98775.70
2018-09-02T15:47:51.264Z,98778.13
2018-09-02T15:50:22.607Z,98781.95
2018-09-02T15:52:51.217Z,98772.58
2018-09-02T15:55:20.716Z,98770.17
2018-09-02T15:57:49.572Z,98775.25
2018-09-02T16:00:22.118Z,98770.91
2018-09-02T16:02:51.372Z,98766.70
2018-09-02T16:05:20.480Z,98763.66
2018-09-02T16:07:49.007Z,98757.91
2018-09-02T16:10:18.839Z,98754.18
2018-09-02T16:12:48.546Z,98759.49
2018-09-02T16:15:17.360Z,98761.30
2018-09-02T16:17:49.018Z,98762.38
2018-09-02T16:20:21.346Z,98759.37
2018-09-02T16:22:52.123Z,98755.87
2018-09-02T16:25:20.668Z,98757.05
2018-09-02T16:27:50.070Z,98752.20
2018-09-02T16:30:20.064Z,98748.06
2018-09-02T16:32:49.428Z,98754.64
2018-09-02T16:35:19.240Z,98760.51
2018-09-02T16:37:47.829Z,98761.13
2018-09-02T16:40:16.827Z,98747.67
2018-09-02T16:42:46.595Z,98748.30
2018-09-02T16:45:15.799Z,98750.42
2018-09-02T16:47:44.712Z,98749.19
2018-09-02T16:50:13.297Z,98749.84
2018-09-02T16:52:42.220Z,98748.19
2018-09-02T16:55:12.847Z,98745.20
2018-09-02T16:57:43.666Z,98743.58
2018-09-02T17:00:12.883Z,98740.16
2018-09-02T17:02:42.235Z,98740.16
2018-09-02T17:05:16.446Z,98739.48
2018-09-02T17:07:49.467Z,98736.49
2018-09-02T17:10:19.156Z,98735.91
2018-09-02T17:12:48.836Z,98734.37
2018-09-02T17:15:17.666Z,98737.28
2018-09-02T17:17:46.918Z,98732.09
2018-09-02T17:20:19.902Z,98743.22
2018-09-02T17:22:53.108Z,98735.23
2018-09-02T17:25:23.971Z,98740.51
2018-09-02T17:27:53.442Z,98730.03
2018-09-02T17:30:27.505Z,98723.50
2018-09-02T17:32:56.110Z,98717.80
2018-09-02T17:35:25.614Z,98724.45
2018-09-02T17:37:54.884Z,98722.48
2018-09-02T17:40:24.312Z,98721.03
2018-09-02T17:42:54.180Z,98719.87
2018-09-02T17:45:25.662Z,98716.14
2018-09-02T17:47:55.378Z,98720.12
2018-09-02T17:50:25.234Z,98718.41
2018-09-02T17:52:57.576Z,98712.83
2018-09-02T17:55:27.801Z,98713.02
2018-09-02T17:57:57.310Z,98714.37
2018-09-02T18:00:31.678Z,98714.32
2018-09-02T18:03:00.142Z,98710.89
2018-09-02T18:06:07.841Z,98717.45
2018-09-02T18:08:39.495Z,98717.28
2018-09-02T18:11:10.634Z,98721.08
2018-09-02T18:13:41.106Z,98723.14
2018-09-02T18:16:12.017Z,98720.81
2018-09-02T18:18:42.761Z,98725.36
2018-09-02T18:21:12.355Z,98727.75
2018-09-02T18:23:40.941Z,98720.45
2018-09-02T18:26:11.442Z,98723.39
2018-09-02T18:28:44.601Z,98730.84
2018-09-02T18:31:14.210Z,98727.42
2018-09-02T18:33:44.416Z,98726.86
2018-09-02T18:36:16.305Z,98734.73
2018-09-02T18:38:45.317Z,98727.98
2018-09-02T18:41:14.940Z,98728.70
2018-09-02T18:43:43.475Z,98731.09
2018-09-02T18:46:13.685Z,98731.41
2018-09-02T18:48:42.234Z,98734.89
2018-09-02T18:51:11.044Z,98732.19
2018-09-02T18:53:40.012Z,98738.46
2018-09-02T18:56:08.516Z,98732.47
2018-09-02T18:58:37.630Z,98736.61
2018-09-02T19:01:07.127Z,98736.58
2018-09-02T19:03:37.330Z,98742.71
2018-09-02T19:06:07.624Z,98740.27
2018-09-02T19:08:36.079Z,98744.34
2018-09-02T19:11:04.537Z,98739.83
2018-09-02T19:13:33.580Z,98746.64
2018-09-02T19:16:03.213Z,98741.86
2018-09-02T19:18:34.478Z,98746.08
2018-09-02T19:21:08.116Z,98753.98
2018-09-02T19:23:37.469Z,98747.84
2018-09-02T19:26:07.377Z,98748.52
2018-09-02T19:28:37.168Z,98748.34
2018-09-02T19:31:07.657Z,98750.17
2018-09-02T19:33:38.460Z,98746.19
2018-09-02T19:36:07.379Z,98740.80
2018-09-02T19:38:38.432Z,98740.00
2018-09-02T19:41:06.956Z,98740.15
2018-09-02T19:43:36.644Z,98737.73
2018-09-02T19:46:08.334Z,98732.19
2018-09-02T19:48:36.578Z,98730.47
2018-09-02T19:51:06.185Z,98728.44
2018-09-02T19:53:37.182Z,98720.23
2018-09-02T19:56:06.360Z,98717.34
2018-09-02T19:58:36.001Z,98715.94
2018-09-02T20:01:05.092Z,98716.25
2018-09-02T20:03:34.697Z,98708.73
2018-09-02T20:06:03.142Z,98712.86
2018-09-02T20:08:31.941Z,98713.87
2018-09-02T20:11:00.462Z,98718.34
2018-09-02T20:13:34.946Z,98713.25
2018-09-02T20:16:03.360Z,98708.05
2018-09-02T20:18:31.726Z,98705.41
2018-09-02T20:21:00.434Z,98698.80
2018-09-02T20:23:29.268Z,98702.60
2018-09-02T20:25:58.511Z,98702.95
2018-09-02T20:28:28.411Z,98699.73
2018-09-02T20:30:57.022Z,98699.56
2018-09-02T20:33:25.590Z,98692.84
2018-09-02T20:35:55.003Z,98697.80
2018-09-02T20:38:24.387Z,98694.37
2018-09-02T20:40:53.487Z,98694.20
2018-09-02T20:43:23.519Z,98698.97
2018-09-02T20:45:52.581Z,98696.29
2018-09-02T20:48:21.563Z,98699.03
2018-09-02T20:50:49.964Z,98698.20
2018-09-02T20:53:19.282Z,98697.73
2018-09-02T20:55:47.660Z,98689.59
2018-09-02T20:58:17.257Z,98690.83
2018-09-02T21:00:46.481Z,98689.63
2018-09-02T21:03:15.232Z,98687.44
2018-09-02T21:05:45.293Z,98694.81
2018-09-02T21:08:14.351Z,98692.89
2018-09-02T21:10:43.922Z,98691.86
2018-09-02T21:13:13.119Z,98695.76
2018-09-02T21:15:43.201Z,98683.41
2018-09-02T21:18:11.750Z,98682.45
2018-09-02T21:20:40.252Z,98678.56
2018-09-02T21:23:08.564Z,98681.84
2018-09-02T21:25:37.626Z,98681.74
2018-09-02T21:28:06.455Z,98677.20
2018-09-02T21:30:35.921Z,98680.27
2018-09-02T21:33:04.403Z,98680.72
2018-09-02T21:35:33.615Z,98682.02
2018-09-02T21:38:02.204Z,98684.61
2018-09-02T21:40:31.543Z,98686.73
2018-09-02T21:43:00.731Z,98687.56
2018-09-02T21:45:29.860Z,98688.59
2018-09-02T21:47:59.992Z,98681.63
2018-09-02T21:50:29.626Z,98684.17
2018-09-02T21:52:59.940Z,98686.14
2018-09-02T21:55:29.002Z,98679.36
2018-09-02T21:57:57.472Z,98678.30
2018-09-02T22:00:26.280Z,98672.77
2018-09-02T22:02:58.286Z,98674.90
2018-09-02T22:05:27.532Z,98673.97
2018-09-02T22:07:58.633Z,98671.58
2018-09-02T22:10:28.980Z,98670.94
2018-09-02T22:12:59.301Z,98670.33
2018-09-02T22:15:29.503Z,98670.09
2018-09-02T22:17:57.998Z,98671.62
2018-09-02T22:20:26.535Z,98674.55
2018-09-02T22:22:55.487Z,98668.77
2018-09-02T22:25:25.064Z,98668.33
2018-09-02T22:30:33.221Z,98667.50
2018-09-02T22:33:01.836Z,98662.59
2018-09-02T22:35:30.432Z,98659.33
2018-09-02T22:37:59.608Z,98660.55
2018-09-02T22:40:28.607Z,98654.41
2018-09-02T22:42:56.992Z,98659.24
2018-09-02T22:45:25.951Z,98654.88
2018-09-02T22:47:56.548Z,98652.72
2018-09-02T22:50:27.445Z,98648.00
2018-09-02T22:52:55.928Z,98644.78
2018-09-02T22:55:24.826Z,98639.01
2018-09-02T22:57:53.589Z,98631.45
2018-09-02T23:00:22.764Z,98624.95
2018-09-02T23:02:51.664Z,98622.52
2018-09-02T23:05:20.341Z,98614.17
2018-09-02T23:07:49.657Z,98605.48
2018-09-02T23:10:18.384Z,98597.70
2018-09-02T23:12:49.734Z,98585.50
2018-09-02T23:15:18.389Z,98587.00
2018-09-02T23:17:48.998Z,98575.31
2018-09-02T23:20:18.213Z,98571.07
2018-09-02T23:22:48.453Z,98570.32
2018-09-02T23:25:17.564Z,98560.81
2018-09-02T23:27:45.928Z,98552.43
2018-09-02T23:30:14.604Z,98546.21
2018-09-02T23:32:44.969Z,98545.11
2018-09-02T23:35:13.385Z,98545.23
2018-09-02T23:37:41.923Z,98541.97
2018-09-02T23:40:10.701Z,98542.72
2018-09-02T23:42:39.672Z,98541.89
2018-09-02T23:45:08.056Z,98539.30
2018-09-02T23:47:36.774Z,98534.27
2018-09-02T23:50:05.287Z,98533.36
2018-09-02T23:52:35.214Z,98530.17
2018-09-02T23:55:03.652Z,98526.95
2018-09-02T23:57:32.078Z,98526.32
